createdAt,value
2022-11-14T00:00:02.317Z,29.52
2022-11-14T00:02:28.994Z,28.80
2022-11-14T00:04:55.692Z,29.55
2022-11-14T00:07:22.266Z,36.95
2022-11-14T00:09:48.834Z,31.92
2022-11-14T00:12:15.474Z,36.67
2022-11-14T00:14:42.043Z,34.40
2022-11-14T00:17:08.655Z,31.08
2022-11-14T00:19:35.231Z,45.42
2022-11-14T00:22:01.811Z,38.35
2022-11-14T00:24:28.358Z,34.95
2022-11-14T00:26:55.021Z,40.38
2022-11-14T00:29:21.685Z,36.00
2022-11-14T00:31:48.372Z,32.70
2022-11-14T00:34:15.165Z,36.10
2022-11-14T00:36:41.747Z,35.35
2022-11-14T00:39:11.888Z,32.10
2022-11-14T00:41:38.524Z,30.67
2022-11-14T00:44:05.168Z,41.65
2022-11-14T00:46:31.697Z,36.13
2022-11-14T00:48:58.297Z,32.83
2022-11-14T00:51:24.866Z,30.10
2022-11-14T00:53:51.507Z,34.35
2022-11-14T00:56:18.142Z,30.98
2022-11-14T00:58:44.742Z,32.85
2022-11-14T01:01:11.391Z,30.23
2022-11-14T01:03:37.962Z,31.05
2022-11-14T01:06:08.985Z,28.92
2022-11-14T01:08:35.689Z,36.10
2022-11-14T01:11:08.734Z,36.90
2022-11-14T01:13:35.278Z,35.00
2022-11-14T01:16:02.331Z,28.33
2022-11-14T01:18:29.182Z,31.20
2022-11-14T01:20:55.895Z,31.27
2022-11-14T01:23:22.441Z,33.83
2022-11-14T01:25:48.947Z,29.00
2022-11-14T01:28:16.915Z,30.25
2022-11-14T01:30:43.471Z,26.10
2022-11-14T01:33:10.025Z,25.25
2022-11-14T01:35:37.472Z,25.48
2022-11-14T01:38:04.466Z,25.75
2022-11-14T01:40:31.641Z,22.60
2022-11-14T01:43:16.648Z,24.50
2022-11-14T01:46:01.681Z,21.45
2022-11-14T01:48:40.281Z,23.20
2022-11-14T01:51:12.959Z,24.38
2022-11-14T01:53:39.570Z,22.52
2022-11-14T01:56:07.642Z,20.95
2022-11-14T01:58:35.657Z,23.38
2022-11-14T02:01:02.312Z,20.13
2022-11-14T02:03:29.021Z,24.30
2022-11-14T02:05:56.820Z,19.98
2022-11-14T02:08:23.761Z,18.65
2022-11-14T02:10:50.402Z,14.38
2022-11-14T02:13:16.859Z,15.52
2022-11-14T02:15:43.324Z,13.90
2022-11-14T02:18:10.715Z,21.05
2022-11-14T02:20:38.528Z,20.45
2022-11-14T02:23:05.080Z,16.70
2022-11-14T02:25:31.566Z,16.25
2022-11-14T02:27:58.488Z,19.98
2022-11-14T02:30:25.170Z,20.33
2022-11-14T02:35:38.147Z,18.45
2022-11-14T02:38:04.678Z,15.52
2022-11-14T02:40:31.232Z,15.38
2022-11-14T02:42:57.701Z,17.17
2022-11-14T02:45:24.249Z,23.52
2022-11-14T02:47:50.709Z,17.95
2022-11-14T02:50:17.523Z,27.98
2022-11-14T02:52:44.135Z,16.50
2022-11-14T02:55:11.509Z,15.68
2022-11-14T02:57:38.009Z,15.85
2022-11-14T03:00:06.765Z,18.63
2022-11-14T03:02:36.755Z,20.50
2022-11-14T03:05:03.338Z,15.27
2022-11-14T03:07:29.910Z,18.48
2022-11-14T03:09:56.442Z,19.15
2022-11-14T03:12:22.895Z,14.35
2022-11-14T03:14:49.404Z,16.05
2022-11-14T03:17:15.966Z,19.13
2022-11-14T03:19:42.415Z,16.92
2022-11-14T03:22:09.005Z,13.02
2022-11-14T03:24:35.564Z,10.68
2022-11-14T03:27:02.088Z,17.50
2022-11-14T03:29:29.028Z,17.42
2022-11-14T03:31:55.506Z,20.55
2022-11-14T03:34:21.979Z,22.55
2022-11-14T03:36:48.674Z,9.43
2022-11-14T03:39:15.214Z,12.75
2022-11-14T03:41:41.675Z,15.43
2022-11-14T03:44:08.125Z,14.45
2022-11-14T03:46:34.598Z,11.50
2022-11-14T03:49:01.050Z,12.63
2022-11-14T03:51:27.542Z,15.82
2022-11-14T03:53:54.081Z,13.75
2022-11-14T03:56:20.592Z,17.50
2022-11-14T03:58:47.269Z,19.50
2022-11-14T04:01:13.912Z,17.55
2022-11-14T04:03:40.414Z,19.60
2022-11-14T04:06:06.917Z,17.50
2022-11-14T04:08:33.650Z,11.98
2022-11-14T04:11:00.313Z,19.92
2022-11-14T04:13:26.871Z,16.77
2022-11-14T04:15:57.470Z,18.58
2022-11-14T04:18:24.502Z,9.88
2022-11-14T04:20:51.190Z,12.60
2022-11-14T04:23:17.722Z,22.00
2022-11-14T04:25:44.769Z,20.10
2022-11-14T04:28:11.426Z,22.45
2022-11-14T04:30:37.906Z,13.75
2022-11-14T04:33:04.421Z,17.67
2022-11-14T04:35:30.899Z,10.48
2022-11-14T04:37:57.360Z,12.90
2022-11-14T04:40:23.826Z,18.33
2022-11-14T04:42:50.315Z,17.27
2022-11-14T04:45:16.840Z,16.35
2022-11-14T04:47:44.858Z,18.45
2022-11-14T04:50:11.426Z,14.10
2022-11-14T04:52:38.405Z,14.60
2022-11-14T04:55:05.141Z,17.98
2022-11-14T04:57:31.800Z,13.93
2022-11-14T04:59:58.358Z,12.35
2022-11-14T05:02:24.891Z,13.10
2022-11-14T05:04:51.427Z,13.60
2022-11-14T05:07:17.919Z,19.13
2022-11-14T05:09:44.554Z,23.10
2022-11-14T05:12:11.085Z,16.15
2022-11-14T05:14:37.754Z,11.63
2022-11-14T05:17:04.285Z,21.08
2022-11-14T05:19:30.826Z,13.57
2022-11-14T05:21:57.510Z,17.13
2022-11-14T05:24:24.069Z,21.65
2022-11-14T05:26:50.530Z,15.38
2022-11-14T05:29:17.078Z,15.98
2022-11-14T05:31:43.738Z,13.93
2022-11-14T05:34:10.214Z,14.88
2022-11-14T05:36:36.681Z,20.70
2022-11-14T05:39:03.170Z,13.73
2022-11-14T05:41:29.702Z,13.82
2022-11-14T05:43:56.159Z,15.13
2022-11-14T05:46:22.676Z,20.25
2022-11-14T05:48:49.186Z,16.55
2022-11-14T05:51:15.680Z,17.55
2022-11-14T05:53:42.174Z,12.05
2022-11-14T05:56:10.827Z,16.05
2022-11-14T05:58:37.389Z,18.98
2022-11-14T06:01:06.938Z,18.60
2022-11-14T06:03:34.392Z,13.70
2022-11-14T06:06:05.030Z,9.77
2022-11-14T06:08:32.397Z,17.67
2022-11-14T06:11:03.871Z,16.27
2022-11-14T06:13:30.604Z,24.50
2022-11-14T06:16:07.206Z,13.50
2022-11-14T06:18:34.516Z,14.60
2022-11-14T06:21:08.488Z,17.42
2022-11-14T06:26:02.254Z,18.70
2022-11-14T06:28:29.421Z,17.10
2022-11-14T06:31:00.054Z,17.58
2022-11-14T06:33:27.239Z,19.85
2022-11-14T06:36:20.365Z,16.60
2022-11-14T06:38:47.126Z,19.13
2022-11-14T06:41:15.297Z,19.45
2022-11-14T06:43:43.094Z,21.13
2022-11-14T06:46:10.622Z,16.20
2022-11-14T06:48:37.410Z,12.25
2022-11-14T06:51:04.487Z,17.42
2022-11-14T06:53:31.763Z,15.73
2022-11-14T06:55:59.600Z,18.60
2022-11-14T06:58:27.111Z,14.90
2022-11-14T07:00:53.762Z,15.25
2022-11-14T07:03:20.490Z,16.45
2022-11-14T07:05:47.022Z,21.20
2022-11-14T07:08:17.250Z,16.98
2022-11-14T07:10:47.241Z,17.02
2022-11-14T07:13:13.719Z,18.40
2022-11-14T07:15:40.294Z,17.13
2022-11-14T07:18:06.814Z,21.55
2022-11-14T07:20:33.348Z,18.38
2022-11-14T07:22:59.814Z,21.80
2022-11-14T07:25:26.415Z,16.95
2022-11-14T07:27:52.889Z,25.27
2022-11-14T07:30:19.440Z,25.77
2022-11-14T07:32:45.939Z,19.23
2022-11-14T07:35:12.500Z,20.95
2022-11-14T07:37:39.246Z,17.17
2022-11-14T07:40:05.971Z,16.48
2022-11-14T07:42:32.507Z,23.67
2022-11-14T07:44:59.066Z,23.95
2022-11-14T07:47:26.696Z,18.30
2022-11-14T07:49:53.233Z,18.33
2022-11-14T07:52:19.705Z,19.67
2022-11-14T07:54:46.238Z,20.02
2022-11-14T07:57:12.713Z,22.65
2022-11-14T07:59:39.178Z,29.35
2022-11-14T08:02:05.766Z,24.20
2022-11-14T08:04:32.348Z,19.63
2022-11-14T08:06:58.950Z,20.67
2022-11-14T08:09:25.887Z,28.08
2022-11-14T08:11:52.573Z,18.60
2022-11-14T08:14:19.095Z,16.88
2022-11-14T08:16:45.630Z,19.17
2022-11-14T08:19:12.317Z,24.85
2022-11-14T08:21:38.857Z,17.27
2022-11-14T08:24:05.524Z,14.77
2022-11-14T08:26:34.451Z,20.65
2022-11-14T08:29:01.281Z,21.60
2022-11-14T08:31:28.201Z,17.73
2022-11-14T08:33:54.854Z,17.10
2022-11-14T08:36:21.478Z,17.65
2022-11-14T08:38:50.347Z,22.75
2022-11-14T08:41:18.111Z,24.63
2022-11-14T08:43:44.596Z,23.80
2022-11-14T08:46:11.101Z,28.77
2022-11-14T08:48:37.621Z,21.48
2022-11-14T08:51:05.358Z,18.67
2022-11-14T08:53:32.056Z,22.80
2022-11-14T08:55:58.563Z,28.27
2022-11-14T08:58:27.759Z,30.38
2022-11-14T09:00:54.615Z,23.63
2022-11-14T09:03:21.219Z,24.00
2022-11-14T09:05:51.693Z,25.10
2022-11-14T09:08:18.237Z,19.58
2022-11-14T09:10:45.263Z,22.70
2022-11-14T09:13:11.732Z,26.10
2022-11-14T09:15:38.274Z,22.92
2022-11-14T09:18:04.782Z,25.00
2022-11-14T09:20:35.112Z,22.15
2022-11-14T09:23:04.529Z,21.65
2022-11-14T09:25:31.266Z,19.00
2022-11-14T09:27:57.796Z,24.10
2022-11-14T09:30:24.293Z,29.73
2022-11-14T09:32:51.088Z,21.88
2022-11-14T09:35:17.767Z,21.90
2022-11-14T09:37:44.314Z,23.48
2022-11-14T09:40:13.250Z,25.77
2022-11-14T09:42:43.000Z,23.50
2022-11-14T09:45:13.286Z,24.48
2022-11-14T09:47:43.159Z,29.08
2022-11-14T09:50:19.641Z,23.88
2022-11-14T09:52:52.341Z,20.10
2022-11-14T09:55:21.332Z,23.08
2022-11-14T09:57:48.101Z,23.48
2022-11-14T10:00:19.258Z,19.85
2022-11-14T10:03:04.910Z,21.67
2022-11-14T10:05:50.257Z,25.60
2022-11-14T10:08:16.707Z,31.73
2022-11-14T10:10:46.178Z,25.98
2022-11-14T10:13:24.213Z,24.85
2022-11-14T10:15:53.755Z,24.77
2022-11-14T10:18:43.168Z,27.73
2022-11-14T10:21:19.086Z,26.90
2022-11-14T10:24:01.006Z,25.10
2022-11-14T10:26:31.571Z,25.23
2022-11-14T10:29:04.352Z,25.50
2022-11-14T10:31:48.971Z,24.40
2022-11-14T10:34:18.454Z,25.77
2022-11-14T10:36:51.066Z,26.50
2022-11-14T10:39:23.391Z,20.42
2022-11-14T10:42:03.230Z,27.45
2022-11-14T10:44:37.001Z,22.73
2022-11-14T10:47:10.957Z,25.08
2022-11-14T10:52:06.527Z,20.95
2022-11-14T10:54:36.941Z,28.50
2022-11-14T10:57:03.404Z,25.98
2022-11-14T10:59:30.428Z,30.70
2022-11-14T11:01:57.995Z,25.98
2022-11-14T11:04:27.376Z,26.75
2022-11-14T11:06:55.872Z,28.92
2022-11-14T11:09:45.882Z,39.30
2022-11-14T11:12:17.262Z,24.48
2022-11-14T11:14:44.932Z,23.55
2022-11-14T11:17:11.406Z,26.33
2022-11-14T11:19:38.809Z,28.38
2022-11-14T11:22:05.730Z,24.98
2022-11-14T11:24:33.389Z,24.33
2022-11-14T11:27:12.990Z,25.10
2022-11-14T11:29:39.506Z,20.75
2022-11-14T11:32:07.978Z,24.83
2022-11-14T11:34:34.743Z,20.25
2022-11-14T11:37:05.935Z,21.85
2022-11-14T11:39:35.715Z,22.30
2022-11-14T11:42:10.111Z,32.83
2022-11-14T11:44:40.102Z,28.98
2022-11-14T11:47:10.483Z,22.20
2022-11-14T11:49:43.027Z,20.65
2022-11-14T11:52:13.687Z,24.83
2022-11-14T11:54:54.008Z,25.35
2022-11-14T11:57:24.310Z,31.63
2022-11-14T11:59:54.259Z,25.45
2022-11-14T12:02:23.329Z,25.98
2022-11-14T12:04:50.999Z,30.27
2022-11-14T12:07:22.543Z,25.00
2022-11-14T12:10:10.161Z,21.65
2022-11-14T12:12:43.038Z,23.95
2022-11-14T12:15:28.150Z,27.83
2022-11-14T12:17:57.750Z,30.30
2022-11-14T12:20:27.212Z,25.95
2022-11-14T12:23:15.596Z,31.02
2022-11-14T12:25:46.129Z,27.40
2022-11-14T12:28:30.558Z,22.80
2022-11-14T12:30:58.901Z,22.70
2022-11-14T12:33:25.334Z,24.05
2022-11-14T12:35:59.625Z,22.00
2022-11-14T12:38:34.258Z,26.40
2022-11-14T12:41:01.758Z,27.00
2022-11-14T12:43:36.941Z,26.05
2022-11-14T12:46:11.697Z,18.15
2022-11-14T12:48:42.746Z,23.08
2022-11-14T12:51:27.679Z,29.25
2022-11-14T12:53:55.192Z,24.42
2022-11-14T12:56:24.410Z,19.65
2022-11-14T12:58:50.907Z,29.65
2022-11-14T13:01:24.247Z,26.70
2022-11-14T13:04:04.022Z,20.45
2022-11-14T13:06:50.832Z,31.13
2022-11-14T13:09:34.033Z,25.58
2022-11-14T13:12:37.314Z,22.52
2022-11-14T13:15:37.702Z,23.67
2022-11-14T13:18:31.821Z,24.45
2022-11-14T13:21:21.017Z,26.55
2022-11-14T13:23:54.829Z,31.58
2022-11-14T13:26:21.260Z,27.83
2022-11-14T13:28:49.000Z,31.85
2022-11-14T13:31:15.488Z,23.23
2022-11-14T13:33:53.142Z,28.77
2022-11-14T13:36:34.756Z,27.98
2022-11-14T13:39:11.194Z,23.63
2022-11-14T13:41:59.884Z,22.45
2022-11-14T13:44:45.175Z,20.55
2022-11-14T13:47:33.025Z,24.02
2022-11-14T13:50:05.489Z,23.13
2022-11-14T13:52:33.229Z,23.88
2022-11-14T13:55:00.221Z,24.38
2022-11-14T13:57:39.011Z,15.68
2022-11-14T14:00:18.413Z,22.83
2022-11-14T14:02:53.338Z,19.08
2022-11-14T14:05:38.687Z,23.05
2022-11-14T14:08:08.250Z,20.10
2022-11-14T14:10:41.302Z,23.15
2022-11-14T14:13:08.114Z,21.13
2022-11-14T14:15:38.191Z,17.67
2022-11-14T14:18:23.516Z,25.73
2022-11-14T14:20:55.761Z,22.77
2022-11-14T14:23:22.311Z,28.65
2022-11-14T14:26:07.423Z,24.15
2022-11-14T14:29:06.053Z,23.23
2022-11-14T14:31:35.661Z,22.50
2022-11-14T14:34:02.220Z,23.92
2022-11-14T14:36:30.093Z,21.92
2022-11-14T14:39:17.080Z,25.40
2022-11-14T14:41:43.657Z,29.92
2022-11-14T14:44:18.921Z,30.63
2022-11-14T14:46:45.466Z,25.70
2022-11-14T14:49:18.315Z,27.02
2022-11-14T14:51:44.999Z,27.20
2022-11-14T14:54:19.243Z,31.80
2022-11-14T14:57:15.037Z,30.73
2022-11-14T14:59:42.351Z,25.92
2022-11-14T15:02:14.225Z,31.67
2022-11-14T15:04:40.998Z,26.92
2022-11-14T15:07:17.568Z,25.65
2022-11-14T15:09:58.173Z,26.42
2022-11-14T15:12:26.179Z,27.98
2022-11-14T15:14:53.889Z,24.52
2022-11-14T15:17:21.475Z,28.50
2022-11-14T15:19:49.685Z,25.20
2022-11-14T15:22:16.162Z,26.98
2022-11-14T15:24:42.643Z,36.25
2022-11-14T15:27:13.310Z,22.13
2022-11-14T15:29:51.192Z,22.27
2022-11-14T15:32:19.167Z,28.00
2022-11-14T15:35:05.646Z,26.80
2022-11-14T15:37:33.406Z,32.60
2022-11-14T15:40:18.399Z,27.90
2022-11-14T15:42:44.854Z,25.88
2022-11-14T15:45:24.650Z,25.52
2022-11-14T15:47:58.279Z,29.98
2022-11-14T15:50:29.258Z,29.98
2022-11-14T15:52:59.005Z,38.15
2022-11-14T15:55:26.524Z,23.27
2022-11-14T15:58:21.033Z,35.03
2022-11-14T16:00:44.217Z,27.05
2022-11-14T16:03:10.986Z,25.58
2022-11-14T16:05:37.663Z,32.25
2022-11-14T16:08:04.288Z,28.67
2022-11-14T16:10:30.803Z,36.65
2022-11-14T16:12:57.447Z,22.08
2022-11-14T16:15:24.116Z,29.63
2022-11-14T16:17:50.851Z,24.50
2022-11-14T16:20:18.397Z,25.52
2022-11-14T16:22:45.842Z,26.70
2022-11-14T16:25:15.348Z,22.23
2022-11-14T16:27:41.887Z,29.08
2022-11-14T16:30:08.977Z,26.08
2022-11-14T16:32:35.443Z,17.25
2022-11-14T16:35:01.929Z,33.90
2022-11-14T16:37:28.478Z,23.63
2022-11-14T16:39:55.077Z,20.27
2022-11-14T16:42:21.535Z,20.45
2022-11-14T16:44:50.606Z,19.75
2022-11-14T16:47:18.686Z,25.15
2022-11-14T16:49:45.122Z,20.45
2022-11-14T16:52:13.086Z,24.17
2022-11-14T16:54:39.594Z,19.77
2022-11-14T16:57:06.071Z,22.80
2022-11-14T16:59:32.805Z,24.17
2022-11-14T17:01:59.676Z,19.08
2022-11-14T17:04:26.142Z,15.27
2022-11-14T17:06:52.717Z,14.30
2022-11-14T17:09:19.295Z,18.77
2022-11-14T17:11:45.874Z,16.55
2022-11-14T17:14:12.802Z,18.92
2022-11-14T17:16:39.294Z,24.02
2022-11-14T17:19:05.891Z,24.48
2022-11-14T17:21:32.840Z,22.75
2022-11-14T17:24:08.873Z,18.75
2022-11-14T17:26:36.687Z,18.05
2022-11-14T17:29:03.704Z,19.08
2022-11-14T17:31:36.475Z,20.83
2022-11-14T17:34:04.562Z,26.45
2022-11-14T17:36:31.191Z,25.98
2022-11-14T17:38:58.600Z,21.90
2022-11-14T17:41:25.300Z,20.67
2022-11-14T17:43:53.006Z,18.40
2022-11-14T17:46:19.784Z,22.98
2022-11-14T17:48:46.521Z,22.75
2022-11-14T17:51:14.558Z,17.80
2022-11-14T17:53:42.929Z,22.70
2022-11-14T17:56:11.358Z,21.20
2022-11-14T17:58:37.869Z,23.60
2022-11-14T18:01:09.200Z,21.80
2022-11-14T18:03:35.822Z,19.73
2022-11-14T18:06:09.247Z,25.08
2022-11-14T18:08:35.985Z,19.02
2022-11-14T18:11:03.343Z,29.55
2022-11-14T18:13:29.929Z,21.63
2022-11-14T18:16:00.798Z,24.15
2022-11-14T18:18:27.401Z,22.77
2022-11-14T18:20:53.922Z,39.15
2022-11-14T18:23:20.420Z,150.18
2022-11-14T18:25:47.010Z,117.18
2022-11-14T18:28:13.562Z,258.83
2022-11-14T18:30:41.866Z,148.50
2022-11-14T18:33:09.040Z,128.40
2022-11-14T18:35:35.509Z,95.93
2022-11-14T18:38:02.008Z,59.35
2022-11-14T18:40:28.470Z,45.35
2022-11-14T18:42:55.053Z,39.65
2022-11-14T18:45:21.602Z,31.67
2022-11-14T18:47:48.283Z,35.50
2022-11-14T18:50:14.770Z,31.38
2022-11-14T18:52:41.248Z,35.60
2022-11-14T18:55:08.169Z,34.35
2022-11-14T18:57:34.740Z,33.13
2022-11-14T19:00:01.242Z,34.08
2022-11-14T19:02:27.852Z,34.30
2022-11-14T19:04:58.364Z,26.38
2022-11-14T19:07:26.192Z,28.77
2022-11-14T19:09:52.989Z,30.05
2022-11-14T19:12:21.999Z,25.27
2022-11-14T19:14:50.677Z,34.95
2022-11-14T19:17:20.969Z,30.17
2022-11-14T19:19:48.876Z,31.27
2022-11-14T19:22:15.874Z,28.60
2022-11-14T19:24:43.300Z,28.45
2022-11-14T19:27:10.008Z,24.95
2022-11-14T19:29:36.932Z,104.43
2022-11-14T19:32:03.793Z,50.55
2022-11-14T19:34:30.403Z,47.08
2022-11-14T19:37:01.234Z,50.22
2022-11-14T19:39:27.958Z,28.90
2022-11-14T19:41:54.489Z,30.30
2022-11-14T19:44:20.955Z,42.78
2022-11-14T19:46:48.213Z,30.67
2022-11-14T19:49:15.028Z,31.98
2022-11-14T19:51:41.695Z,28.60
2022-11-14T19:54:09.358Z,32.08
2022-11-14T19:56:35.919Z,24.67
2022-11-14T19:59:02.872Z,26.42
2022-11-14T20:01:29.450Z,25.50
2022-11-14T20:03:57.264Z,35.40
2022-11-14T20:06:25.228Z,30.55
2022-11-14T20:08:52.463Z,26.08
2022-11-14T20:11:19.410Z,32.67
2022-11-14T20:13:46.084Z,24.25
2022-11-14T20:16:12.642Z,31.35
2022-11-14T20:18:39.543Z,26.42
2022-11-14T20:21:06.995Z,25.00
2022-11-14T20:23:34.274Z,24.60
2022-11-14T20:26:00.953Z,19.08
2022-11-14T20:28:27.470Z,33.17
2022-11-14T20:30:53.949Z,19.60
2022-11-14T20:33:20.432Z,20.85
2022-11-14T20:35:47.051Z,19.77
2022-11-14T20:38:13.494Z,24.67
2022-11-14T20:40:39.985Z,33.67
2022-11-14T20:43:07.310Z,21.38
2022-11-14T20:45:33.788Z,133.80
2022-11-14T20:48:00.325Z,155.55
2022-11-14T20:50:26.848Z,60.30
2022-11-14T20:52:53.350Z,63.72
2022-11-14T20:55:19.844Z,45.30
2022-11-14T20:57:46.347Z,40.05
2022-11-14T21:00:13.070Z,32.78
2022-11-14T21:02:39.514Z,29.00
2022-11-14T21:05:06.049Z,31.45
2022-11-14T21:07:32.558Z,26.05
2022-11-14T21:10:17.938Z,24.65
2022-11-14T21:13:04.389Z,25.90
2022-11-14T21:15:33.406Z,23.30
2022-11-14T21:17:59.914Z,22.52
2022-11-14T21:20:26.380Z,28.45
2022-11-14T21:22:52.966Z,24.35
2022-11-14T21:25:19.418Z,21.20
2022-11-14T21:27:45.863Z,21.90
2022-11-14T21:30:12.543Z,24.73
2022-11-14T21:32:39.079Z,24.95
2022-11-14T21:35:09.695Z,28.15
2022-11-14T21:37:37.623Z,22.38
2022-11-14T21:42:55.173Z,22.67
2022-11-14T21:45:24.251Z,28.58
2022-11-14T21:47:50.758Z,23.02
2022-11-14T21:50:17.340Z,26.67
2022-11-14T21:52:43.868Z,28.27
2022-11-14T21:55:10.368Z,24.00
2022-11-14T21:57:37.059Z,28.17
2022-11-14T22:00:04.182Z,31.17
2022-11-14T22:02:49.267Z,23.52
2022-11-14T22:05:15.763Z,41.20
2022-11-14T22:07:42.383Z,41.47
2022-11-14T22:10:09.018Z,33.13
2022-11-14T22:12:35.516Z,34.30
2022-11-14T22:15:02.372Z,27.75
2022-11-14T22:17:28.827Z,34.75
2022-11-14T22:19:55.353Z,32.80
2022-11-14T22:22:21.833Z,25.90
2022-11-14T22:24:48.315Z,25.33
2022-11-14T22:27:14.829Z,25.27
2022-11-14T22:29:41.310Z,31.08
2022-11-14T22:32:07.895Z,25.75
2022-11-14T22:34:34.394Z,28.50
2022-11-14T22:37:00.886Z,29.50
2022-11-14T22:39:27.341Z,20.65
2022-11-14T22:41:54.048Z,26.67
2022-11-14T22:44:20.547Z,26.85
2022-11-14T22:46:47.159Z,23.00
2022-11-14T22:49:18.374Z,26.92
2022-11-14T22:51:47.428Z,25.17
2022-11-14T22:54:14.279Z,24.92
2022-11-14T22:56:40.742Z,26.67
2022-11-14T22:59:07.251Z,25.13
2022-11-14T23:01:33.819Z,20.23
2022-11-14T23:04:01.709Z,25.67
2022-11-14T23:06:28.781Z,25.42
2022-11-14T23:08:55.807Z,22.58
2022-11-14T23:11:23.794Z,23.35
2022-11-14T23:13:51.700Z,24.40
2022-11-14T23:16:19.838Z,27.65
2022-11-14T23:18:46.790Z,25.58
2022-11-14T23:21:15.049Z,21.17
2022-11-14T23:23:41.938Z,21.92
2022-11-14T23:26:15.855Z,26.55
2022-11-14T23:31:09.252Z,22.55
2022-11-14T23:33:35.776Z,21.45
2022-11-14T23:36:02.318Z,28.45
2022-11-14T23:38:30.823Z,24.13
2022-11-14T23:40:58.185Z,29.67
2022-11-14T23:43:24.899Z,29.35
2022-11-14T23:45:51.414Z,21.67
2022-11-14T23:48:18.587Z,33.70
2022-11-14T23:50:45.501Z,27.55
2022-11-14T23:53:12.389Z,28.08
2022-11-14T23:55:38.921Z,26.67
2022-11-14T23:58:05.392Z,27.73
